createdAt,value
2022-11-30T00:02:03.039Z,101330.53
2022-11-30T00:04:31.626Z,101328.91
2022-11-30T00:07:00.049Z,101322.78
2022-11-30T00:09:27.905Z,101304.53
2022-11-30T00:11:57.524Z,101318.38
2022-11-30T00:14:25.982Z,101293.84
2022-11-30T00:16:54.322Z,101321.19
2022-11-30T00:19:22.575Z,101318.38
2022-11-30T00:21:50.648Z,101321.69
2022-11-30T00:24:18.574Z,101317.09
2022-11-30T00:26:47.064Z,101321.66
2022-11-30T00:29:16.760Z,101326.28
2022-11-30T00:31:44.554Z,101325.66
2022-11-30T00:34:12.901Z,101329.28
2022-11-30T00:36:40.821Z,101299.31
2022-11-30T00:39:09.117Z,101289.41
2022-11-30T00:41:37.033Z,101307.88
2022-11-30T00:44:05.529Z,101322.50
2022-11-30T00:46:34.886Z,101299.00
2022-11-30T00:49:03.293Z,101319.03
2022-11-30T00:51:31.606Z,101280.88
2022-11-30T00:53:59.428Z,101299.75
2022-11-30T00:56:27.821Z,101311.28
2022-11-30T00:58:56.194Z,101289.72
2022-11-30T01:01:24.166Z,101305.53
2022-11-30T01:03:53.645Z,101296.16
2022-11-30T01:06:21.945Z,101298.78
2022-11-30T01:08:49.911Z,101254.56
2022-11-30T01:11:26.054Z,101293.84
2022-11-30T01:13:55.180Z,101318.22
2022-11-30T01:16:27.209Z,101308.66
2022-11-30T01:18:58.043Z,101311.25
2022-11-30T01:21:27.924Z,101316.41
2022-11-30T01:23:56.084Z,101324.13
2022-11-30T01:26:25.222Z,101313.75
2022-11-30T01:28:54.804Z,101315.72
2022-11-30T01:31:25.229Z,101328.59
2022-11-30T01:33:54.767Z,101323.31
2022-11-30T01:36:27.253Z,101323.31
2022-11-30T01:38:57.780Z,101316.09
2022-11-30T01:41:28.161Z,101335.34
2022-11-30T01:43:58.700Z,101264.25
2022-11-30T01:46:35.937Z,101308.47
2022-11-30T01:49:16.216Z,101329.72
2022-11-30T01:51:48.116Z,101330.53
2022-11-30T01:54:21.550Z,101324.25
2022-11-30T01:56:54.109Z,101313.09
2022-11-30T01:59:24.306Z,101334.19
2022-11-30T02:01:53.260Z,101334.19
2022-11-30T02:04:26.064Z,101318.03
2022-11-30T02:06:58.250Z,101327.41
2022-11-30T02:09:29.040Z,101329.59
2022-11-30T02:11:58.490Z,101318.03
2022-11-30T02:14:35.098Z,101338.34
2022-11-30T02:17:12.839Z,101334.88
2022-11-30T02:20:17.768Z,101340.97
2022-11-30T02:23:04.852Z,101331.41
2022-11-30T02:25:41.829Z,101334.56
2022-11-30T02:28:26.692Z,101328.28
2022-11-30T02:30:59.587Z,101333.22
2022-11-30T02:33:31.581Z,101335.88
2022-11-30T02:36:02.401Z,101342.13
2022-11-30T02:38:31.410Z,101327.13
2022-11-30T02:40:59.265Z,101337.22
2022-11-30T02:43:31.657Z,101337.34
2022-11-30T02:46:07.599Z,101314.47
2022-11-30T02:48:45.078Z,101346.13
2022-11-30T02:51:19.069Z,101328.66
2022-11-30T02:53:48.656Z,101319.75
2022-11-30T02:56:17.365Z,101336.19
2022-11-30T02:58:45.213Z,101342.78
2022-11-30T03:01:15.189Z,101321.88
2022-11-30T03:03:43.588Z,101342.16
2022-11-30T03:06:11.502Z,101307.13
2022-11-30T03:08:39.890Z,101284.56
2022-11-30T03:11:07.991Z,101307.75
2022-11-30T03:13:36.129Z,101327.81
2022-11-30T03:16:08.662Z,101328.97
2022-11-30T03:18:39.234Z,101339.66
2022-11-30T03:21:08.856Z,101325.03
2022-11-30T03:23:37.087Z,101345.13
2022-11-30T03:26:06.518Z,101338.53
2022-11-30T03:28:34.790Z,101341.16
2022-11-30T03:31:02.854Z,101344.47
2022-11-30T03:33:31.176Z,101317.81
2022-11-30T03:36:06.113Z,101325.22
2022-11-30T03:38:35.261Z,101329.66
2022-11-30T03:41:04.692Z,101335.91
2022-11-30T03:43:32.736Z,101345.94
2022-11-30T03:46:01.572Z,101344.13
2022-11-30T03:48:29.996Z,101344.13
2022-11-30T03:50:58.195Z,101344.13
2022-11-30T03:53:28.350Z,101343.31
2022-11-30T03:55:58.691Z,101343.47
2022-11-30T03:58:27.051Z,101331.31
2022-11-30T04:01:01.681Z,101345.31
2022-11-30T04:03:30.936Z,101343.66
2022-11-30T04:05:59.505Z,101340.34
2022-11-30T04:08:30.848Z,101351.72
2022-11-30T04:11:00.836Z,101337.91
2022-11-30T04:13:30.078Z,101352.09
2022-11-30T04:15:58.592Z,101339.88
2022-11-30T04:18:29.084Z,101335.75
2022-11-30T04:20:59.013Z,101341.03
2022-11-30T04:23:32.501Z,101347.63
2022-11-30T04:26:01.031Z,101341.88
2022-11-30T04:28:29.221Z,101325.41
2022-11-30T04:30:57.267Z,101324.09
2022-11-30T04:33:25.726Z,101339.09
2022-11-30T04:35:57.393Z,101345.50
2022-11-30T04:38:26.357Z,101339.56
2022-11-30T04:40:56.553Z,101315.06
2022-11-30T04:43:24.876Z,101342.56
2022-11-30T04:45:53.461Z,101355.06
2022-11-30T04:48:22.065Z,101349.16
2022-11-30T04:50:50.960Z,101351.78
2022-11-30T04:53:19.300Z,101319.72
2022-11-30T04:55:47.221Z,101344.91
2022-11-30T04:58:16.468Z,101351.66
2022-11-30T05:00:44.703Z,101326.78
2022-11-30T05:03:12.969Z,101345.91
2022-11-30T05:05:40.948Z,101360.03
2022-11-30T05:08:09.298Z,101358.41
2022-11-30T05:10:37.538Z,101350.16
2022-11-30T05:13:05.477Z,101362.69
2022-11-30T05:15:35.395Z,101352.16
2022-11-30T05:18:03.987Z,101340.47
2022-11-30T05:20:32.097Z,101338.00
2022-11-30T05:23:00.302Z,101364.00
2022-11-30T05:25:28.417Z,101365.00
2022-11-30T05:27:56.311Z,101353.31
2022-11-30T05:30:24.622Z,101366.63
2022-11-30T05:32:55.721Z,101348.03
2022-11-30T05:35:23.690Z,101347.53
2022-11-30T05:37:52.128Z,101293.88
2022-11-30T05:40:20.418Z,101329.44
2022-11-30T05:42:48.267Z,101349.84
2022-11-30T05:45:16.753Z,101367.63
2022-11-30T05:47:45.011Z,101351.97
2022-11-30T05:50:14.408Z,101349.16
2022-11-30T05:52:42.776Z,101367.94
2022-11-30T05:55:11.232Z,101356.44
2022-11-30T05:57:40.222Z,101367.94
2022-11-30T06:00:10.905Z,101370.78
2022-11-30T06:02:39.352Z,101344.94
2022-11-30T06:05:08.386Z,101369.97
2022-11-30T06:07:38.243Z,101380.81
2022-11-30T06:10:07.225Z,101383.47
2022-11-30T06:12:35.371Z,101379.38
2022-11-30T06:15:03.933Z,101383.00
2022-11-30T06:17:32.290Z,101378.88
2022-11-30T06:20:00.202Z,101383.66
2022-11-30T06:22:28.433Z,101378.38
2022-11-30T06:24:58.305Z,101367.31
2022-11-30T06:27:26.240Z,101356.81
2022-11-30T06:29:54.638Z,101376.56
2022-11-30T06:32:23.075Z,101382.13
2022-11-30T06:34:51.035Z,101395.19
2022-11-30T06:37:19.364Z,101380.50
2022-11-30T06:42:37.597Z,101368.50
2022-11-30T06:45:07.100Z,101384.13
2022-11-30T06:47:35.224Z,101378.88
2022-11-30T06:50:03.616Z,101401.59
2022-11-30T06:52:33.203Z,101381.81
2022-11-30T06:55:01.062Z,101386.28
2022-11-30T06:57:30.043Z,101405.56
2022-11-30T06:59:59.962Z,101405.25
2022-11-30T07:02:27.715Z,101382.50
2022-11-30T07:04:58.234Z,101404.09
2022-11-30T07:07:26.371Z,101378.09
2022-11-30T07:09:56.802Z,101398.00
2022-11-30T07:12:25.037Z,101392.25
2022-11-30T07:14:56.720Z,101389.78
2022-11-30T07:17:26.508Z,101403.78
2022-11-30T07:19:54.260Z,101416.47
2022-11-30T07:22:22.086Z,101419.13
2022-11-30T07:25:07.383Z,101415.47
2022-11-30T07:27:35.683Z,101439.22
2022-11-30T07:30:03.336Z,101430.16
2022-11-30T07:32:32.398Z,101429.50
2022-11-30T07:35:00.269Z,101440.88
2022-11-30T07:37:27.982Z,101417.47
2022-11-30T07:39:56.278Z,101440.38
2022-11-30T07:42:24.005Z,101443.69
2022-11-30T07:44:58.193Z,101382.22
2022-11-30T07:47:26.663Z,101440.22
2022-11-30T07:49:56.033Z,101438.91
2022-11-30T07:52:25.417Z,101437.09
2022-11-30T07:54:53.071Z,101440.03
2022-11-30T07:57:20.952Z,101443.31
2022-11-30T07:59:49.246Z,101453.06
2022-11-30T08:02:17.480Z,101455.56
2022-11-30T08:04:45.803Z,101434.94
2022-11-30T08:07:15.545Z,101461.97
2022-11-30T08:09:45.019Z,101444.50
2022-11-30T08:12:12.963Z,101450.09
2022-11-30T08:15:11.154Z,101442.84
2022-11-30T08:17:28.981Z,101468.88
2022-11-30T08:19:56.796Z,101471.38
2022-11-30T08:22:26.130Z,101474.03
2022-11-30T08:24:54.334Z,101441.22
2022-11-30T08:27:22.261Z,101474.66
2022-11-30T08:29:50.431Z,101464.28
2022-11-30T08:32:18.171Z,101471.19
2022-11-30T08:34:46.653Z,101484.72
2022-11-30T08:37:15.017Z,101468.56
2022-11-30T08:39:44.207Z,101479.09
2022-11-30T08:42:12.271Z,101485.06
2022-11-30T08:44:39.909Z,101477.47
2022-11-30T08:47:08.102Z,101488.66
2022-11-30T08:49:35.853Z,101487.53
2022-11-30T08:52:19.599Z,101477.97
2022-11-30T08:54:49.491Z,101495.78
2022-11-30T08:57:19.164Z,101491.31
2022-11-30T08:59:47.278Z,101498.22
2022-11-30T09:02:18.846Z,101495.59
2022-11-30T09:04:51.068Z,101498.09
2022-11-30T09:07:19.952Z,101469.22
2022-11-30T09:09:49.758Z,101480.25
2022-11-30T09:12:17.508Z,101502.53
2022-11-30T09:14:50.803Z,101497.09
2022-11-30T09:17:22.044Z,101486.84
2022-11-30T09:19:50.529Z,101501.84
2022-11-30T09:22:18.327Z,101471.19
2022-11-30T09:24:46.374Z,101484.03
2022-11-30T09:27:16.030Z,101485.03
2022-11-30T09:29:43.864Z,101505.63
2022-11-30T09:32:11.881Z,101506.63
2022-11-30T09:34:39.644Z,101485.03
2022-11-30T09:37:07.503Z,101513.53
2022-11-30T09:39:35.276Z,101511.09
2022-11-30T09:42:33.493Z,101521.00
2022-11-30T09:45:07.760Z,101506.78
2022-11-30T09:48:00.073Z,101478.41
2022-11-30T09:50:32.994Z,101491.31
2022-11-30T09:53:06.734Z,101511.56
2022-11-30T09:55:40.383Z,101513.03
2022-11-30T09:58:24.483Z,101509.38
2022-11-30T10:00:52.370Z,101506.44
2022-11-30T10:03:23.629Z,101472.47
2022-11-30T10:05:58.029Z,101498.19
2022-11-30T10:08:50.836Z,101514.47
2022-11-30T10:11:33.808Z,101497.50
2022-11-30T10:14:18.112Z,101489.31
2022-11-30T10:16:58.376Z,101497.38
2022-11-30T10:19:43.123Z,101500.19
2022-11-30T10:22:22.199Z,101508.75
2022-11-30T10:25:10.162Z,101487.94
2022-11-30T10:27:50.122Z,101506.09
2022-11-30T10:30:22.603Z,101507.38
2022-11-30T10:32:54.431Z,101507.38
2022-11-30T10:35:31.841Z,101491.59
2022-11-30T10:38:04.555Z,101472.09
2022-11-30T10:40:39.221Z,101478.38
2022-11-30T10:43:18.804Z,101505.41
2022-11-30T10:45:50.342Z,101498.94
2022-11-30T10:48:25.801Z,101453.50
2022-11-30T10:50:54.673Z,101498.63
2022-11-30T10:53:23.325Z,101491.84
2022-11-30T10:55:59.890Z,101459.50
2022-11-30T10:58:32.920Z,101486.84
2022-11-30T11:01:06.849Z,101485.13
2022-11-30T11:03:35.600Z,101481.16
2022-11-30T11:06:15.862Z,101465.63
2022-11-30T11:08:46.827Z,101481.94
2022-11-30T11:11:36.880Z,101491.00
2022-11-30T11:14:16.088Z,101466.91
2022-11-30T11:16:53.836Z,101484.38
2022-11-30T11:19:34.847Z,101472.19
2022-11-30T11:22:05.808Z,101480.06
2022-11-30T11:24:35.762Z,101491.28
2022-11-30T11:27:03.990Z,101486.53
2022-11-30T11:29:34.958Z,101486.03
2022-11-30T11:32:25.913Z,101483.22
2022-11-30T11:34:54.129Z,101489.88
2022-11-30T11:37:26.705Z,101491.41
2022-11-30T11:40:04.040Z,101496.31
2022-11-30T11:42:35.551Z,101492.66
2022-11-30T11:45:08.101Z,101493.34
2022-11-30T11:47:41.423Z,101488.69
2022-11-30T11:51:04.836Z,101483.16
2022-11-30T11:53:25.553Z,101487.91
2022-11-30T11:55:58.818Z,101495.69
2022-11-30T11:58:36.460Z,101466.69
2022-11-30T12:01:38.745Z,101471.91
2022-11-30T12:04:14.283Z,101464.19
2022-11-30T12:06:46.161Z,101486.88
2022-11-30T12:09:19.170Z,101483.22
2022-11-30T12:11:50.301Z,101455.72
2022-11-30T12:14:19.933Z,101473.94
2022-11-30T12:17:05.783Z,101471.50
2022-11-30T12:19:39.597Z,101479.91
2022-11-30T12:22:20.785Z,101441.50
2022-11-30T12:25:00.126Z,101484.66
2022-11-30T12:27:46.873Z,101479.00
2022-11-30T12:30:23.580Z,101480.84
2022-11-30T12:33:12.009Z,101473.72
2022-11-30T12:35:49.824Z,101485.94
2022-11-30T12:38:31.681Z,101482.31
2022-11-30T12:41:08.568Z,101483.16
2022-11-30T12:43:46.855Z,101474.09
2022-11-30T12:46:24.796Z,101478.31
2022-11-30T12:49:11.018Z,101473.38
2022-11-30T12:51:47.953Z,101487.53
2022-11-30T12:54:22.574Z,101483.91
2022-11-30T12:56:56.489Z,101487.22
2022-11-30T12:59:32.437Z,101474.47
2022-11-30T13:02:17.299Z,101470.00
2022-11-30T13:04:51.866Z,101475.28
2022-11-30T13:07:29.087Z,101445.31
2022-11-30T13:10:01.584Z,101479.84
2022-11-30T13:12:36.286Z,101474.75
2022-11-30T13:15:14.008Z,101476.56
2022-11-30T13:17:44.331Z,101477.22
2022-11-30T13:20:21.530Z,101478.44
2022-11-30T13:22:56.948Z,101466.09
2022-11-30T13:26:06.312Z,101485.88
2022-11-30T13:28:32.837Z,101491.16
2022-11-30T13:31:06.581Z,101484.19
2022-11-30T13:33:48.705Z,101483.84
2022-11-30T13:36:28.824Z,101484.47
2022-11-30T13:39:19.987Z,101476.63
2022-11-30T13:41:50.260Z,101481.53
2022-11-30T13:44:27.132Z,101486.78
2022-11-30T13:46:55.082Z,101475.16
2022-11-30T13:49:24.730Z,101481.50
2022-11-30T13:52:19.996Z,101485.44
2022-11-30T13:54:45.146Z,101471.59
2022-11-30T13:57:57.982Z,101485.75
2022-11-30T14:00:49.751Z,101489.69
2022-11-30T14:03:25.631Z,101485.41
2022-11-30T14:05:54.872Z,101495.50
2022-11-30T14:08:40.246Z,101492.56
2022-11-30T14:11:42.037Z,101498.97
2022-11-30T14:14:45.354Z,101509.84
2022-11-30T14:17:20.632Z,101496.94
2022-11-30T14:19:52.958Z,101507.53
2022-11-30T14:22:21.221Z,101491.44
2022-11-30T14:24:50.736Z,101509.59
2022-11-30T14:27:22.143Z,101510.63
2022-11-30T14:29:53.632Z,101519.34
2022-11-30T14:32:36.238Z,101504.41
2022-11-30T14:35:13.082Z,101532.41
2022-11-30T14:38:01.515Z,101528.28
2022-11-30T14:40:31.456Z,101523.19
2022-11-30T14:43:01.617Z,101517.91
2022-11-30T14:45:33.923Z,101519.53
2022-11-30T14:48:13.943Z,101520.34
2022-11-30T14:50:44.711Z,101519.53
2022-11-30T14:53:27.329Z,101525.47
2022-11-30T14:56:01.073Z,101517.22
2022-11-30T14:58:37.477Z,101525.47
2022-11-30T15:01:18.565Z,101528.09
2022-11-30T15:03:50.870Z,101502.78
2022-11-30T15:06:21.857Z,101531.44
2022-11-30T15:08:53.132Z,101526.97
2022-11-30T15:11:21.612Z,101497.53
2022-11-30T15:13:52.552Z,101511.34
2022-11-30T15:16:22.649Z,101520.88
2022-11-30T15:18:53.472Z,101505.75
2022-11-30T15:21:24.068Z,101525.88
2022-11-30T15:23:53.279Z,101524.22
2022-11-30T15:29:00.386Z,101481.44
2022-11-30T15:31:33.928Z,101513.03
2022-11-30T15:34:03.737Z,101488.69
2022-11-30T15:36:36.349Z,101523.25
2022-11-30T15:39:07.988Z,101519.78
2022-11-30T15:41:37.628Z,101506.84
2022-11-30T15:44:06.000Z,101503.22
2022-11-30T15:46:39.797Z,101522.81
2022-11-30T15:53:04.419Z,101525.59
2022-11-30T15:55:52.743Z,101531.06
2022-11-30T15:58:31.265Z,101530.25
2022-11-30T16:01:10.655Z,101538.69
2022-11-30T16:04:07.147Z,101534.59
2022-11-30T16:06:52.897Z,101537.25
2022-11-30T16:09:27.073Z,101538.56
2022-11-30T16:11:58.760Z,101470.56
2022-11-30T16:14:31.138Z,101505.31
2022-11-30T16:17:04.161Z,101461.50
2022-11-30T16:19:37.739Z,101477.81
2022-11-30T16:22:10.761Z,101485.22
2022-11-30T16:24:43.074Z,101478.81
2022-11-30T16:27:37.545Z,101482.66
2022-11-30T16:30:07.064Z,101510.59
2022-11-30T16:32:35.174Z,101520.19
2022-11-30T16:35:03.805Z,101497.59
2022-11-30T16:37:34.647Z,101484.78
2022-11-30T16:40:11.511Z,101468.00
2022-11-30T16:42:39.381Z,101526.28
2022-11-30T16:45:14.627Z,101497.44
2022-11-30T16:47:43.952Z,101525.66
2022-11-30T16:50:12.929Z,101556.59
2022-11-30T16:52:41.689Z,101556.16
2022-11-30T16:55:19.275Z,101527.78
2022-11-30T16:57:48.520Z,101565.22
2022-11-30T17:00:21.021Z,101561.59
2022-11-30T17:02:56.931Z,101567.66
2022-11-30T17:05:25.343Z,101536.41
2022-11-30T17:07:53.251Z,101574.59
2022-11-30T17:10:23.399Z,101496.34
2022-11-30T17:12:51.768Z,101528.47
2022-11-30T17:15:21.510Z,101579.88
2022-11-30T17:17:49.936Z,101571.66
2022-11-30T17:20:19.121Z,101581.56
2022-11-30T17:22:49.347Z,101557.47
2022-11-30T17:25:19.634Z,101578.72
2022-11-30T17:27:50.813Z,101572.31
2022-11-30T17:30:20.734Z,101499.81
2022-11-30T17:32:48.882Z,101516.59
2022-11-30T17:35:17.799Z,101569.16
2022-11-30T17:37:46.989Z,101555.78
2022-11-30T17:40:17.888Z,101566.03
2022-11-30T17:42:47.179Z,101501.78
2022-11-30T17:45:19.020Z,101547.09
2022-11-30T17:47:47.093Z,101569.97
2022-11-30T17:50:16.338Z,101510.69
2022-11-30T17:52:44.394Z,101548.59
2022-11-30T17:55:13.296Z,101528.31
2022-11-30T17:57:41.988Z,101577.13
2022-11-30T18:00:10.936Z,101573.34
2022-11-30T18:02:40.735Z,101557.03
2022-11-30T18:09:00.902Z,101552.72
2022-11-30T18:11:32.140Z,101515.53
2022-11-30T18:14:03.600Z,101505.47
2022-11-30T18:16:35.507Z,101509.44
2022-11-30T18:19:11.965Z,101524.09
2022-11-30T18:21:41.931Z,101598.81
2022-11-30T18:24:11.136Z,101573.06
2022-11-30T18:26:40.589Z,101569.47
2022-11-30T18:29:10.141Z,101543.06
2022-11-30T18:31:38.909Z,101602.59
2022-11-30T18:34:09.324Z,101561.88
2022-11-30T18:36:37.699Z,101550.00
2022-11-30T18:39:06.300Z,101586.09
2022-11-30T18:41:35.065Z,101605.41
2022-11-30T18:44:03.786Z,101600.47
2022-11-30T18:46:32.887Z,101528.75
2022-11-30T18:49:01.981Z,101604.41
2022-11-30T18:51:32.585Z,101542.44
2022-11-30T18:54:02.610Z,101539.78
2022-11-30T18:56:32.861Z,101607.38
2022-11-30T18:59:03.584Z,101564.53
2022-11-30T19:01:32.928Z,101587.16
2022-11-30T19:04:03.065Z,101559.91
2022-11-30T19:06:35.317Z,101594.72
2022-11-30T19:09:07.416Z,101524.28
2022-11-30T19:11:35.950Z,101618.94
2022-11-30T19:14:04.895Z,101534.00
2022-11-30T19:16:37.389Z,101626.56
2022-11-30T19:19:07.935Z,101584.69
2022-11-30T19:21:37.364Z,101589.47
2022-11-30T19:24:05.607Z,101622.94
2022-11-30T19:26:33.512Z,101617.34
2022-11-30T19:29:01.599Z,101577.72
2022-11-30T19:31:29.655Z,101581.34
2022-11-30T19:33:58.360Z,101560.56
2022-11-30T19:36:30.033Z,101582.03
2022-11-30T19:39:01.444Z,101596.38
2022-11-30T19:41:30.082Z,101612.03
2022-11-30T19:44:03.796Z,101562.22
2022-11-30T19:46:34.655Z,101611.56
2022-11-30T19:49:05.359Z,101570.44
2022-11-30T19:51:33.465Z,101578.38
2022-11-30T19:54:03.777Z,101562.53
2022-11-30T19:56:34.734Z,101621.75
2022-11-30T19:59:06.379Z,101608.25
2022-11-30T20:01:35.442Z,101612.38
2022-11-30T20:04:04.319Z,101568.13
2022-11-30T20:06:34.068Z,101594.88
2022-11-30T20:09:06.344Z,101637.59
2022-11-30T20:11:35.428Z,101592.53
2022-11-30T20:14:03.734Z,101656.94
2022-11-30T20:16:32.082Z,101644.34
2022-11-30T20:19:02.822Z,101646.84
2022-11-30T20:21:33.099Z,101630.16
2022-11-30T20:24:06.385Z,101629.69
2022-11-30T20:26:36.239Z,101644.03
2022-11-30T20:29:06.191Z,101658.03
2022-11-30T20:31:37.466Z,101663.16
2022-11-30T20:34:06.163Z,101630.50
2022-11-30T20:36:34.336Z,101630.97
2022-11-30T20:39:04.553Z,101662.69
2022-11-30T20:41:32.641Z,101665.31
2022-11-30T20:44:02.130Z,101605.75
2022-11-30T20:46:32.307Z,101633.44
2022-11-30T20:49:01.987Z,101660.84
2022-11-30T20:51:33.269Z,101647.47
2022-11-30T20:54:06.717Z,101633.25
2022-11-30T20:56:37.512Z,101587.84
2022-11-30T20:59:08.168Z,101587.53
2022-11-30T21:01:36.840Z,101613.59
2022-11-30T21:04:06.014Z,101607.97
2022-11-30T21:06:36.839Z,101595.75
2022-11-30T21:09:07.809Z,101642.28
2022-11-30T21:11:35.725Z,101598.03
2022-11-30T21:14:04.258Z,101631.75
2022-11-30T21:16:32.371Z,101623.97
2022-11-30T21:20:17.965Z,101667.41
2022-11-30T21:29:42.820Z,101595.06
2022-11-30T21:32:56.994Z,101639.28
2022-11-30T21:35:27.746Z,101630.19
2022-11-30T21:38:01.351Z,101648.69
2022-11-30T21:40:35.961Z,101672.16
2022-11-30T21:53:02.131Z,101602.63
2022-11-30T21:58:53.232Z,101647.34
2022-11-30T22:01:24.489Z,101672.44
2022-11-30T22:07:56.352Z,101662.06
2022-11-30T22:10:36.286Z,101670.66
2022-11-30T22:16:13.505Z,101641.56
2022-11-30T22:33:23.370Z,101686.59
2022-11-30T22:36:11.089Z,101607.81
